« Back
NWS Peachtree City, Ga » Text Product » MCN Terminal Aerodrome Forecast


Printer-friendly Version
Current Version              Previous Versions:   1  2  3  4  5  6  7  8  9  

Terminal Aerodrome Forecast

289
FTUS42 KFFC 061128
TAFMCN
TAF
KMCN 061128Z 0612/0712 04004KT P6SM FEW250
     FM061500 07006KT P6SM SCT150 BKN250
     FM062100 03005KT P6SM SCT050 BKN100
     FM070300 36004KT P6SM BKN050
     FM071000 33004KT P6SM FEW120=

USA.gov is the U.S. government's official web portal to all federal, state and local government web resources and services.